createdAt,value
2022-09-18T00:01:28.754Z,87.25
2022-09-18T00:03:59.696Z,87.69
2022-09-18T00:06:29.639Z,87.52
2022-09-18T00:08:58.065Z,87.79
2022-09-18T00:11:26.131Z,87.41
2022-09-18T00:13:52.703Z,87.66
2022-09-18T00:16:21.296Z,87.93
2022-09-18T00:18:47.985Z,87.49
2022-09-18T00:21:19.722Z,87.71
2022-09-18T00:23:46.812Z,87.37
2022-09-18T00:26:14.692Z,87.93
2022-09-18T00:28:41.073Z,87.40
2022-09-18T00:31:09.821Z,87.23
2022-09-18T00:33:37.527Z,86.88
2022-09-18T00:36:06.881Z,87.20
2022-09-18T00:38:33.555Z,87.22
2022-09-18T00:41:02.016Z,87.14
2022-09-18T00:43:30.549Z,86.68
2022-09-18T00:46:00.776Z,86.61
2022-09-18T00:48:55.974Z,86.82
2022-09-18T00:51:22.367Z,87.29
2022-09-18T00:53:54.785Z,87.05
2022-09-18T00:56:21.153Z,87.28
2022-09-18T00:58:47.585Z,87.61
2022-09-18T01:01:14.082Z,87.49
2022-09-18T01:03:40.551Z,87.60
2022-09-18T01:06:22.942Z,87.71
2022-09-18T01:08:55.317Z,87.88
2022-09-18T01:11:26.663Z,87.63
2022-09-18T01:14:31.124Z,88.23
2022-09-18T01:17:25.381Z,88.53
2022-09-18T01:20:19.850Z,88.92
2022-09-18T01:22:53.089Z,89.13
2022-09-18T01:25:42.197Z,88.68
2022-09-18T01:28:31.909Z,88.94
2022-09-18T01:31:03.042Z,88.97
2022-09-18T01:33:46.777Z,88.75
2022-09-18T01:36:15.421Z,89.26
2022-09-18T01:38:46.366Z,89.46
2022-09-18T01:41:16.731Z,89.01
2022-09-18T01:43:44.318Z,89.26
2022-09-18T01:46:14.537Z,89.29
2022-09-18T01:48:46.223Z,89.07
2022-09-18T01:51:20.059Z,88.81
2022-09-18T01:54:09.651Z,88.79
2022-09-18T01:56:46.032Z,88.75
2022-09-18T01:59:16.959Z,89.13
2022-09-18T02:01:44.712Z,88.68
2022-09-18T02:04:15.064Z,88.92
2022-09-18T02:06:44.642Z,88.67
2022-09-18T02:09:11.838Z,88.97
2022-09-18T02:11:41.502Z,88.86
2022-09-18T02:14:09.227Z,89.24
2022-09-18T02:16:46.990Z,88.98
2022-09-18T02:19:33.548Z,89.15
2022-09-18T02:22:01.508Z,89.01
2022-09-18T02:24:33.550Z,88.70
2022-09-18T02:27:00.320Z,88.64
2022-09-18T02:29:30.028Z,88.82
2022-09-18T02:31:59.181Z,88.43
2022-09-18T02:34:25.906Z,88.72
2022-09-18T02:37:07.471Z,88.84
2022-09-18T02:39:50.071Z,88.81
2022-09-18T02:42:24.604Z,88.68
2022-09-18T02:44:58.944Z,88.88
2022-09-18T02:47:50.353Z,88.66
2022-09-18T02:50:27.901Z,88.34
2022-09-18T02:53:00.544Z,88.23
2022-09-18T02:55:49.073Z,88.12
2022-09-18T02:58:20.971Z,88.31
2022-09-18T03:00:48.335Z,88.31
2022-09-18T03:03:18.565Z,88.54
2022-09-18T03:05:45.059Z,88.86
2022-09-18T03:08:12.061Z,88.89
2022-09-18T03:10:38.451Z,88.31
2022-09-18T03:13:04.857Z,89.49
2022-09-18T03:15:31.923Z,89.15
2022-09-18T03:17:58.259Z,88.92
2022-09-18T03:20:24.635Z,89.07
2022-09-18T03:22:50.983Z,88.84
2022-09-18T03:25:17.355Z,88.94
2022-09-18T03:27:43.691Z,88.72
2022-09-18T03:30:10.483Z,89.00
2022-09-18T03:32:36.868Z,88.56
2022-09-18T03:35:03.303Z,88.42
2022-09-18T03:37:29.656Z,87.86
2022-09-18T03:39:56.036Z,87.27
2022-09-18T03:42:22.449Z,87.46
2022-09-18T03:44:48.797Z,87.74
2022-09-18T03:47:15.645Z,87.77
2022-09-18T03:49:42.231Z,87.97
2022-09-18T03:52:08.598Z,87.86
2022-09-18T03:54:34.952Z,87.73
2022-09-18T03:57:01.352Z,87.86
2022-09-18T03:59:27.714Z,87.96
2022-09-18T04:01:54.122Z,88.42
2022-09-18T04:04:20.573Z,88.33
2022-09-18T04:06:46.972Z,88.51
2022-09-18T04:09:13.332Z,88.81
2022-09-18T04:11:39.692Z,88.40
2022-09-18T04:14:06.113Z,88.60
2022-09-18T04:16:32.507Z,88.84
2022-09-18T04:18:59.213Z,88.97
2022-09-18T04:21:25.635Z,88.96
2022-09-18T04:23:51.983Z,89.19
2022-09-18T04:26:18.393Z,89.02
2022-09-18T04:28:44.814Z,88.93
2022-09-18T04:31:11.263Z,88.36
2022-09-18T04:33:37.647Z,88.55
2022-09-18T04:36:04.016Z,88.80
2022-09-18T04:38:30.377Z,89.01
2022-09-18T04:40:57.407Z,89.51
2022-09-18T04:43:24.417Z,89.28
2022-09-18T04:45:50.824Z,89.63
2022-09-18T04:48:18.380Z,89.32
2022-09-18T04:50:48.442Z,89.57
2022-09-18T04:53:15.099Z,89.19
2022-09-18T04:55:45.476Z,89.49
2022-09-18T04:58:12.570Z,89.27
2022-09-18T05:00:39.185Z,89.64
2022-09-18T05:03:06.045Z,89.44
2022-09-18T05:05:32.648Z,89.49
2022-09-18T05:08:00.150Z,89.32
2022-09-18T05:10:26.912Z,89.59
2022-09-18T05:12:53.989Z,89.35
2022-09-18T05:15:21.336Z,89.82
2022-09-18T05:17:48.052Z,89.68
2022-09-18T05:20:14.949Z,89.42
2022-09-18T05:22:45.592Z,89.42
2022-09-18T05:25:12.006Z,89.65
2022-09-18T05:27:39.295Z,89.75
2022-09-18T05:30:06.385Z,89.10
2022-09-18T05:32:32.761Z,89.12
2022-09-18T05:34:59.328Z,89.04
2022-09-18T05:37:25.668Z,89.17
2022-09-18T05:39:52.120Z,89.73
2022-09-18T05:42:18.589Z,90.14
2022-09-18T05:44:44.946Z,89.85
2022-09-18T05:47:11.365Z,89.37
2022-09-18T05:49:37.753Z,88.88
2022-09-18T05:52:04.161Z,88.68
2022-09-18T05:54:30.885Z,88.14
2022-09-18T05:56:57.241Z,88.82
2022-09-18T05:59:23.596Z,89.14
2022-09-18T06:01:49.998Z,89.29
2022-09-18T06:04:16.414Z,89.47
2022-09-18T06:06:42.985Z,89.27
2022-09-18T06:09:09.365Z,88.89
2022-09-18T06:11:35.733Z,89.28
2022-09-18T06:14:02.126Z,89.49
2022-09-18T06:16:28.644Z,89.20
2022-09-18T06:18:55.132Z,89.11
2022-09-18T06:21:21.509Z,88.83
2022-09-18T06:23:47.848Z,88.74
2022-09-18T06:26:15.221Z,88.94
2022-09-18T06:28:41.785Z,89.04
2022-09-18T06:31:09.150Z,88.71
2022-09-18T06:33:36.238Z,88.49
2022-09-18T06:36:08.188Z,88.47
2022-09-18T06:38:34.644Z,88.77
2022-09-18T06:41:01.066Z,88.88
2022-09-18T06:43:27.437Z,89.63
2022-09-18T06:45:55.049Z,89.09
2022-09-18T06:48:22.410Z,88.91
2022-09-18T06:50:56.489Z,88.75
2022-09-18T06:53:23.765Z,88.63
2022-09-18T06:55:50.747Z,88.11
2022-09-18T06:58:18.344Z,88.36
2022-09-18T07:00:45.630Z,88.37
2022-09-18T07:03:12.389Z,87.92
2022-09-18T07:05:42.043Z,88.12
2022-09-18T07:08:09.595Z,87.59
2022-09-18T07:10:36.279Z,88.23
2022-09-18T07:13:02.779Z,88.50
2022-09-18T07:15:29.337Z,88.53
2022-09-18T07:17:59.541Z,88.56
2022-09-18T07:20:25.978Z,88.36
2022-09-18T07:22:57.141Z,88.17
2022-09-18T07:25:24.496Z,88.36
2022-09-18T07:27:50.915Z,88.50
2022-09-18T07:30:17.817Z,87.75
2022-09-18T07:32:44.251Z,87.04
2022-09-18T07:35:10.853Z,87.45
2022-09-18T07:37:38.913Z,87.23
2022-09-18T07:40:12.669Z,87.61
2022-09-18T07:42:39.822Z,87.55
2022-09-18T07:45:06.787Z,88.21
2022-09-18T07:47:33.165Z,88.61
2022-09-18T07:49:59.531Z,88.02
2022-09-18T07:52:25.917Z,87.42
2022-09-18T07:54:52.277Z,87.65
2022-09-18T07:57:18.650Z,86.94
2022-09-18T07:59:45.013Z,87.61
2022-09-18T08:02:12.266Z,87.50
2022-09-18T08:04:39.108Z,87.37
2022-09-18T08:07:05.510Z,88.16
2022-09-18T08:09:31.860Z,87.27
2022-09-18T08:11:58.309Z,87.15
2022-09-18T08:14:28.722Z,86.89
2022-09-18T08:16:55.556Z,86.92
2022-09-18T08:19:21.905Z,86.11
2022-09-18T08:21:48.267Z,87.71
2022-09-18T08:24:17.234Z,87.03
2022-09-18T08:26:44.165Z,86.00
2022-09-18T08:29:10.499Z,86.43
2022-09-18T08:31:36.960Z,85.01
2022-09-18T08:34:03.422Z,84.88
2022-09-18T08:36:29.797Z,84.98
2022-09-18T08:38:56.167Z,85.74
2022-09-18T08:41:35.034Z,85.52
2022-09-18T08:44:01.427Z,85.85
2022-09-18T08:47:02.433Z,85.64
2022-09-18T08:49:36.868Z,85.64
2022-09-18T08:52:19.123Z,85.19
2022-09-18T08:54:58.064Z,86.87
2022-09-18T08:57:48.064Z,86.13
2022-09-18T09:00:22.054Z,87.03
2022-09-18T09:02:50.689Z,87.17
2022-09-18T09:05:22.047Z,87.28
2022-09-18T09:08:06.612Z,87.16
2022-09-18T09:10:47.735Z,87.00
2022-09-18T09:14:03.472Z,87.26
2022-09-18T09:16:45.081Z,87.43
2022-09-18T09:19:28.017Z,87.27
2022-09-18T09:22:04.673Z,87.91
2022-09-18T09:24:37.845Z,87.69
2022-09-18T09:27:41.355Z,87.29
2022-09-18T09:30:19.566Z,86.70
2022-09-18T09:33:04.643Z,86.69
2022-09-18T09:36:02.588Z,86.52
2022-09-18T09:38:45.972Z,86.34
2022-09-18T09:41:29.476Z,86.79
2022-09-18T09:44:21.981Z,86.96
2022-09-18T09:47:09.648Z,87.21
2022-09-18T09:49:57.846Z,86.72
2022-09-18T09:52:25.655Z,86.18
2022-09-18T09:54:55.509Z,87.10
2022-09-18T09:57:43.851Z,86.88
2022-09-18T10:00:14.467Z,86.65
2022-09-18T10:02:55.524Z,86.11
2022-09-18T10:05:27.791Z,86.65
2022-09-18T10:08:14.313Z,85.72
2022-09-18T10:10:45.437Z,85.45
2022-09-18T10:13:18.288Z,85.25
2022-09-18T10:15:46.903Z,85.45
2022-09-18T10:18:16.590Z,84.34
2022-09-18T10:20:44.368Z,84.75
2022-09-18T10:23:28.825Z,84.35
2022-09-18T10:26:00.051Z,83.66
2022-09-18T10:28:29.370Z,83.02
2022-09-18T10:31:10.417Z,84.72
2022-09-18T10:33:41.368Z,83.46
2022-09-18T10:36:33.196Z,84.92
2022-09-18T10:38:59.976Z,84.20
2022-09-18T10:41:37.817Z,84.32
2022-09-18T10:44:21.259Z,84.34
2022-09-18T10:46:56.388Z,84.46
2022-09-18T10:49:53.401Z,84.86
2022-09-18T10:52:29.940Z,85.53
2022-09-18T10:55:02.432Z,85.08
2022-09-18T10:57:34.884Z,85.21
2022-09-18T11:00:04.809Z,84.38
2022-09-18T11:02:39.498Z,84.75
2022-09-18T11:05:16.127Z,85.75
2022-09-18T11:07:50.448Z,84.97
2022-09-18T11:10:22.471Z,84.93
2022-09-18T11:12:55.575Z,86.21
2022-09-18T11:15:26.121Z,85.99
2022-09-18T11:17:54.551Z,85.66
2022-09-18T11:20:47.181Z,85.62
2022-09-18T11:23:15.899Z,86.08
2022-09-18T11:25:42.316Z,85.95
2022-09-18T11:28:22.145Z,85.11
2022-09-18T11:31:00.214Z,85.26
2022-09-18T11:33:30.365Z,84.66
2022-09-18T11:36:01.628Z,84.79
2022-09-18T11:38:28.236Z,84.76
2022-09-18T11:40:56.631Z,85.69
2022-09-18T11:43:32.459Z,85.55
2022-09-18T11:46:27.630Z,84.63
2022-09-18T11:49:29.120Z,84.64
2022-09-18T11:51:55.390Z,84.52
2022-09-18T11:54:39.434Z,84.60
2022-09-18T11:57:16.580Z,84.34
2022-09-18T11:59:47.808Z,84.80
2022-09-18T12:02:33.691Z,84.02
2022-09-18T12:05:09.963Z,84.77
2022-09-18T12:07:55.207Z,83.41
2022-09-18T12:10:51.164Z,83.39
2022-09-18T12:13:32.843Z,83.35
2022-09-18T12:16:08.881Z,82.87
2022-09-18T12:18:46.159Z,83.45
2022-09-18T12:21:15.938Z,83.96
2022-09-18T12:23:42.260Z,85.02
2022-09-18T12:26:32.189Z,84.92
2022-09-18T12:29:14.479Z,84.55
2022-09-18T12:31:58.451Z,85.10
2022-09-18T12:34:36.960Z,84.64
2022-09-18T12:37:41.927Z,84.82
2022-09-18T12:40:23.866Z,85.02
2022-09-18T12:43:02.672Z,84.87
2022-09-18T12:45:59.985Z,84.83
2022-09-18T12:48:41.079Z,85.70
2022-09-18T12:51:46.779Z,85.94
2022-09-18T12:54:44.099Z,86.17
2022-09-18T12:57:19.587Z,86.49
2022-09-18T12:59:59.784Z,86.64
2022-09-18T13:02:51.121Z,86.26
2022-09-18T13:05:36.438Z,86.43
2022-09-18T13:08:07.641Z,86.64
2022-09-18T13:10:39.338Z,87.75
2022-09-18T13:13:17.856Z,87.74
2022-09-18T13:16:07.772Z,87.43
2022-09-18T13:18:42.408Z,87.63
2022-09-18T13:21:18.831Z,87.12
2022-09-18T13:23:46.107Z,86.92
2022-09-18T13:26:14.624Z,86.26
2022-09-18T13:28:45.307Z,86.61
2022-09-18T13:31:20.190Z,87.40
2022-09-18T13:34:13.928Z,87.67
2022-09-18T13:36:42.634Z,88.21
2022-09-18T13:39:28.602Z,87.90
2022-09-18T13:41:56.619Z,87.71
2022-09-18T13:44:26.207Z,87.75
2022-09-18T13:46:55.407Z,88.03
2022-09-18T13:49:24.725Z,87.44
2022-09-18T13:51:51.103Z,87.43
2022-09-18T13:54:25.768Z,87.43
2022-09-18T13:57:04.915Z,85.97
2022-09-18T13:59:47.384Z,86.04
2022-09-18T14:02:43.114Z,84.85
2022-09-18T14:05:28.466Z,85.27
2022-09-18T14:08:02.746Z,85.44
2022-09-18T14:11:13.787Z,85.12
2022-09-18T14:13:41.703Z,85.11
2022-09-18T14:16:25.960Z,85.94
2022-09-18T14:18:56.952Z,86.26
2022-09-18T14:21:28.683Z,85.48
2022-09-18T14:24:23.584Z,85.91
2022-09-18T14:27:27.175Z,84.67
2022-09-18T14:29:58.489Z,86.36
2022-09-18T14:32:26.386Z,85.38
2022-09-18T14:35:15.510Z,86.63
2022-09-18T14:37:41.869Z,86.67
2022-09-18T14:40:23.009Z,86.87
2022-09-18T14:42:49.767Z,87.06
2022-09-18T14:45:29.498Z,86.29
2022-09-18T14:47:56.615Z,86.62
2022-09-18T14:50:37.443Z,86.64
2022-09-18T14:53:25.855Z,87.03
2022-09-18T14:55:56.731Z,87.44
2022-09-18T14:58:24.287Z,87.35
2022-09-18T15:00:54.236Z,86.84
2022-09-18T15:03:29.564Z,86.79
2022-09-18T15:06:05.008Z,87.37
2022-09-18T15:08:35.403Z,87.20
2022-09-18T15:11:02.151Z,87.63
2022-09-18T15:13:30.968Z,87.82
2022-09-18T15:16:00.109Z,87.61
2022-09-18T15:18:28.271Z,87.22
2022-09-18T15:20:59.395Z,86.79
2022-09-18T15:23:29.712Z,87.09
2022-09-18T15:25:59.131Z,86.90
2022-09-18T15:28:27.382Z,86.98
2022-09-18T15:30:58.066Z,87.40
2022-09-18T15:33:26.314Z,87.19
2022-09-18T15:35:54.258Z,87.29
2022-09-18T15:38:24.230Z,87.65
2022-09-18T15:40:51.191Z,87.65
2022-09-18T15:43:29.696Z,88.02
2022-09-18T15:46:07.436Z,87.78
2022-09-18T15:48:37.349Z,88.26
2022-09-18T15:51:18.124Z,87.59
2022-09-18T15:54:09.068Z,87.79
2022-09-18T15:56:37.223Z,88.21
2022-09-18T15:59:06.807Z,88.40
2022-09-18T16:01:40.042Z,87.81
2022-09-18T16:04:20.003Z,87.22
2022-09-18T16:07:00.776Z,87.28
2022-09-18T16:09:40.371Z,86.80
2022-09-18T16:12:22.001Z,86.73
2022-09-18T16:15:08.603Z,85.09
2022-09-18T16:17:37.339Z,85.75
2022-09-18T16:20:28.080Z,85.83
2022-09-18T16:22:59.635Z,85.73
2022-09-18T16:25:28.488Z,85.74
2022-09-18T16:27:56.450Z,85.51
2022-09-18T16:30:23.940Z,85.37
2022-09-18T16:32:55.491Z,86.65
2022-09-18T16:35:21.934Z,86.91
2022-09-18T16:37:48.628Z,86.88
2022-09-18T16:40:18.431Z,86.30
2022-09-18T16:42:44.780Z,87.67
2022-09-18T16:45:11.766Z,87.01
2022-09-18T16:47:44.007Z,86.37
2022-09-18T16:50:11.213Z,86.49
2022-09-18T16:52:37.562Z,86.45
2022-09-18T16:55:04.460Z,86.43
2022-09-18T16:57:30.904Z,86.98
2022-09-18T16:59:59.744Z,86.25
2022-09-18T17:02:26.323Z,86.01
2022-09-18T17:04:53.043Z,86.19
2022-09-18T17:07:19.438Z,86.46
2022-09-18T17:09:46.037Z,86.69
2022-09-18T17:12:12.429Z,86.63
2022-09-18T17:14:39.221Z,86.29
2022-09-18T17:17:06.193Z,86.43
2022-09-18T17:19:32.691Z,86.31
2022-09-18T17:21:59.047Z,85.94
2022-09-18T17:24:27.520Z,86.10
2022-09-18T17:26:54.013Z,86.96
2022-09-18T17:29:21.031Z,86.95
2022-09-18T17:31:47.489Z,86.80
2022-09-18T17:34:16.396Z,87.07
2022-09-18T17:36:42.755Z,86.94
2022-09-18T17:39:09.193Z,87.09
2022-09-18T17:41:35.555Z,87.17
2022-09-18T17:44:02.164Z,87.21
2022-09-18T17:46:28.565Z,87.08
2022-09-18T17:48:58.636Z,87.70
2022-09-18T17:51:28.683Z,87.43
2022-09-18T17:54:02.805Z,87.51
2022-09-18T17:56:32.521Z,87.73
2022-09-18T17:59:01.488Z,87.86
2022-09-18T18:01:28.740Z,87.74
2022-09-18T18:03:55.379Z,88.07
2022-09-18T18:06:22.035Z,88.42
2022-09-18T18:08:48.502Z,88.38
2022-09-18T18:11:16.934Z,88.33
2022-09-18T18:13:44.959Z,88.37
2022-09-18T18:16:16.387Z,88.39
2022-09-18T18:18:43.316Z,88.74
2022-09-18T18:21:10.815Z,88.82
2022-09-18T18:23:40.067Z,88.78
2022-09-18T18:26:08.275Z,88.69
2022-09-18T18:28:35.391Z,88.89
2022-09-18T18:31:05.471Z,88.52
2022-09-18T18:33:33.397Z,88.48
2022-09-18T18:36:17.096Z,88.21
2022-09-18T18:38:45.066Z,88.23
2022-09-18T18:41:12.757Z,88.23
2022-09-18T18:43:42.571Z,87.91
2022-09-18T18:46:12.141Z,87.60
2022-09-18T18:48:39.976Z,87.83
2022-09-18T18:51:14.587Z,87.63
2022-09-18T18:53:42.154Z,87.38
2022-09-18T18:56:16.094Z,87.30
2022-09-18T18:58:43.925Z,87.55
2022-09-18T19:01:16.081Z,87.15
2022-09-18T19:03:56.548Z,87.15
2022-09-18T19:06:24.652Z,87.09
2022-09-18T19:08:55.848Z,87.45
2022-09-18T19:11:22.696Z,87.43
2022-09-18T19:13:53.982Z,87.24
2022-09-18T19:16:20.489Z,87.13
2022-09-18T19:18:52.597Z,87.12
2022-09-18T19:21:20.566Z,86.69
2022-09-18T19:23:55.738Z,86.39
2022-09-18T19:26:25.414Z,86.52
2022-09-18T19:28:53.633Z,86.74
2022-09-18T19:31:20.762Z,87.19
2022-09-18T19:33:50.819Z,87.05
2022-09-18T19:36:17.424Z,86.59
2022-09-18T19:38:43.772Z,86.69
2022-09-18T19:41:38.774Z,86.97
2022-09-18T19:44:31.835Z,86.65
2022-09-18T19:47:01.496Z,86.82
2022-09-18T19:49:32.371Z,87.19
2022-09-18T19:51:58.876Z,87.17
2022-09-18T19:54:25.272Z,87.54
2022-09-18T19:56:52.347Z,87.07
2022-09-18T19:59:18.740Z,87.25
2022-09-18T20:01:45.317Z,86.58
2022-09-18T20:04:11.717Z,87.36
2022-09-18T20:06:40.260Z,86.15
2022-09-18T20:09:06.667Z,86.31
2022-09-18T20:11:33.077Z,86.34
2022-09-18T20:13:59.590Z,85.83
2022-09-18T20:16:26.606Z,86.44
2022-09-18T20:18:52.998Z,86.54
2022-09-18T20:21:19.619Z,85.72
2022-09-18T20:23:46.815Z,85.84
2022-09-18T20:26:15.254Z,86.27
2022-09-18T20:28:41.711Z,85.90
2022-09-18T20:31:12.930Z,85.60
2022-09-18T20:33:39.317Z,85.66
2022-09-18T20:36:07.174Z,85.96
2022-09-18T20:38:35.892Z,86.13
2022-09-18T20:41:13.369Z,86.09
2022-09-18T20:43:44.037Z,86.11
2022-09-18T20:46:15.738Z,85.46
2022-09-18T20:48:55.471Z,85.45
2022-09-18T20:51:32.281Z,85.20
2022-09-18T20:53:58.705Z,85.68
2022-09-18T20:56:27.157Z,85.87
2022-09-18T20:58:54.408Z,85.83
2022-09-18T21:01:23.468Z,85.51
2022-09-18T21:03:57.553Z,85.21
2022-09-18T21:06:27.006Z,85.03
2022-09-18T21:08:54.367Z,85.07
2022-09-18T21:11:27.344Z,84.82
2022-09-18T21:13:56.519Z,84.85
2022-09-18T21:16:25.748Z,84.74
2022-09-18T21:18:53.790Z,85.89
2022-09-18T21:21:20.303Z,84.67
2022-09-18T21:24:02.219Z,84.72
2022-09-18T21:26:30.971Z,84.42
2022-09-18T21:29:00.340Z,84.45
2022-09-18T21:31:27.099Z,84.21
2022-09-18T21:33:53.643Z,84.54
2022-09-18T21:36:24.445Z,84.71
2022-09-18T21:38:52.093Z,84.01
2022-09-18T21:41:19.801Z,84.33
2022-09-18T21:43:48.200Z,84.81
2022-09-18T21:46:17.386Z,84.42
2022-09-18T21:48:43.779Z,84.31
2022-09-18T21:51:12.384Z,84.42
2022-09-18T21:53:40.059Z,84.46
2022-09-18T21:56:08.368Z,84.21
2022-09-18T21:58:40.498Z,84.29
2022-09-18T22:01:15.603Z,84.44
2022-09-18T22:03:50.319Z,84.54
2022-09-18T22:06:18.793Z,83.96
2022-09-18T22:08:48.160Z,84.17
2022-09-18T22:11:15.905Z,83.93
2022-09-18T22:13:42.399Z,84.57
2022-09-18T22:16:09.090Z,84.68
2022-09-18T22:18:35.527Z,85.04
2022-09-18T22:21:01.912Z,84.78
2022-09-18T22:23:29.003Z,84.94
2022-09-18T22:25:58.025Z,84.56
2022-09-18T22:28:26.448Z,84.43
2022-09-18T22:30:52.881Z,84.33
2022-09-18T22:33:19.237Z,84.31
2022-09-18T22:35:45.671Z,84.74
2022-09-18T22:38:12.007Z,84.24
2022-09-18T22:40:38.440Z,84.44
2022-09-18T22:43:04.887Z,84.78
2022-09-18T22:45:31.263Z,84.26
2022-09-18T22:47:57.683Z,84.38
2022-09-18T22:50:24.045Z,84.09
2022-09-18T22:52:50.417Z,84.04
2022-09-18T22:55:16.823Z,84.13
2022-09-18T22:57:43.269Z,84.64
2022-09-18T23:00:12.627Z,83.87
2022-09-18T23:02:42.741Z,83.72
2022-09-18T23:05:09.165Z,84.00
2022-09-18T23:07:38.728Z,83.68
2022-09-18T23:10:05.603Z,84.00
2022-09-18T23:12:32.022Z,84.38
2022-09-18T23:14:58.420Z,84.19
2022-09-18T23:17:24.837Z,84.22
2022-09-18T23:19:51.206Z,84.09
2022-09-18T23:22:17.540Z,83.84
2022-09-18T23:24:44.025Z,83.87
2022-09-18T23:27:10.523Z,83.96
2022-09-18T23:29:38.913Z,83.35
2022-09-18T23:32:05.775Z,83.30
2022-09-18T23:34:33.543Z,83.21
2022-09-18T23:37:00.832Z,83.25
2022-09-18T23:39:31.097Z,84.58
2022-09-18T23:41:59.138Z,83.49
2022-09-18T23:44:28.521Z,83.29
2022-09-18T23:46:55.179Z,82.87
2022-09-18T23:49:23.619Z,82.82
2022-09-18T23:51:52.305Z,82.61
2022-09-18T23:54:20.886Z,82.43
2022-09-18T23:56:47.984Z,82.31
2022-09-18T23:59:17.778Z,82.38
